Time;durP1;ratioP1;P1;durP2;ratioP2;P2;SDS_P1;SDS_P2;PMS_P1;PMS_P2;Temp;Humidity;BMP_temperature;BMP_pressure;BME280_temperature;BME280_humidity;BME280_pressure;Samples;Min_cycle;Max_cycle;Signal;HPM_P1;HPM_P2
2022/06/08 00:01:43;;;;;;;8.70;3.17;;;15.50;99.90;;;;;;4972653;28;20035;-60
2022/06/08 00:04:12;;;;;;;7.68;3.58;;;15.50;99.90;;;;;;4972788;28;20026;-59
2022/06/08 00:06:38;;;;;;;11.35;3.80;;;15.60;99.90;;;;;;4972470;28;20454;-59
2022/06/08 00:09:04;;;;;;;11.60;3.08;;;15.70;99.90;;;;;;4972410;28;20117;-60
2022/06/08 00:11:30;;;;;;;9.55;3.53;;;15.70;99.90;;;;;;4972583;28;20489;-60
2022/06/08 00:13:57;;;;;;;9.90;3.92;;;15.80;99.90;;;;;;4973187;28;20032;-60
2022/06/08 00:16:22;;;;;;;11.40;3.70;;;16.10;99.90;;;;;;4972296;28;20134;-60
2022/06/08 00:18:48;;;;;;;9.40;3.72;;;15.90;99.90;;;;;;4972355;28;20106;-60
2022/06/08 00:21:15;;;;;;;13.02;4.05;;;15.80;99.90;;;;;;4970550;28;20027;-59
2022/06/08 00:23:42;;;;;;;14.25;3.88;;;15.80;99.90;;;;;;4972263;28;20058;-60
2022/06/08 00:26:08;;;;;;;10.60;3.85;;;15.70;99.90;;;;;;4968885;28;20031;-60
2022/06/08 00:28:35;;;;;;;11.52;3.97;;;15.60;99.90;;;;;;4971854;28;20027;-60
2022/06/08 00:31:01;;;;;;;13.32;4.18;;;15.50;99.90;;;;;;4972291;28;20058;-60
2022/06/08 00:33:27;;;;;;;8.80;3.80;;;15.60;99.90;;;;;;4971933;28;20046;-60
2022/06/08 00:35:53;;;;;;;11.65;4.07;;;15.70;99.90;;;;;;4972146;28;20031;-60
2022/06/08 00:38:19;;;;;;;10.95;4.22;;;15.60;99.90;;;;;;4972563;28;20377;-60
2022/06/08 00:41:02;;;;;;;10.88;3.75;;;15.60;99.90;;;;;;4971590;28;20082;-59
2022/06/08 00:43:28;;;;;;;10.40;4.03;;;15.80;99.90;;;;;;4972227;28;20027;-60
2022/06/08 00:50:08;;;;;;;12.75;4.00;;;16.00;99.90;;;;;;4972091;28;20061;-60
2022/06/08 00:52:34;;;;;;;9.27;4.40;;;16.00;99.90;;;;;;4971637;28;20068;-60
2022/06/08 00:55:06;;;;;;;10.55;4.97;;;15.40;99.90;;;;;;4972550;28;20099;-60
2022/06/08 00:57:38;;;;;;;11.25;4.50;;;15.30;99.90;;;;;;4971950;28;20101;-60
2022/06/08 01:00:09;;;;;;;11.90;4.70;;;15.20;99.90;;;;;;4972122;28;21959;-60
2022/06/08 01:02:35;;;;;;;13.73;5.05;;;15.30;99.90;;;;;;4971866;28;20070;-59
2022/06/08 01:05:16;;;;;;;11.40;4.95;;;15.20;99.90;;;;;;4968194;28;20065;-60
2022/06/08 01:07:43;;;;;;;12.80;4.82;;;15.30;99.90;;;;;;4972271;28;20564;-59
2022/06/08 01:10:20;;;;;;;10.73;4.53;;;15.60;99.90;;;;;;4972284;28;20023;-60
2022/06/08 01:12:47;;;;;;;13.25;5.22;;;15.60;99.90;;;;;;4974484;28;20047;-59
2022/06/08 01:15:21;;;;;;;10.70;4.72;;;15.60;99.90;;;;;;4975514;28;20400;-60
2022/06/08 01:17:47;;;;;;;13.38;5.40;;;15.60;99.90;;;;;;4975147;28;20410;-60
2022/06/08 01:20:12;;;;;;;11.57;5.35;;;15.60;99.90;;;;;;4975782;28;20030;-60
2022/06/08 01:22:38;;;;;;;13.18;5.13;;;15.50;99.90;;;;;;4975240;28;20518;-60
2022/06/08 01:25:05;;;;;;;13.50;5.07;;;15.60;99.90;;;;;;4969761;28;20047;-60
2022/06/08 01:27:54;;;;;;;11.15;5.13;;;15.70;99.90;;;;;;4975026;28;20035;-60
2022/06/08 01:30:29;;;;;;;11.27;5.40;;;15.50;99.90;;;;;;4975244;28;20110;-60
2022/06/08 01:33:26;;;;;;;13.93;5.20;;;15.40;99.90;;;;;;4975127;28;20034;-60
2022/06/08 01:35:54;;;;;;;10.63;5.22;;;15.50;99.90;;;;;;4974840;28;20109;-60
2022/06/08 01:38:32;;;;;;;14.50;5.05;;;15.50;99.90;;;;;;4975038;28;20502;-59
2022/06/08 01:41:00;;;;;;;12.00;4.90;;;15.60;99.90;;;;;;4975492;28;20027;-60
2022/06/08 01:43:44;;;;;;;12.18;4.65;;;15.60;99.90;;;;;;4975169;28;20052;-60
2022/06/08 01:46:26;;;;;;;10.07;3.95;;;15.60;99.90;;;;;;4974711;28;20046;-60
2022/06/08 01:49:05;;;;;;;11.27;4.40;;;15.80;99.90;;;;;;4974482;28;20043;-60
2022/06/08 01:51:50;;;;;;;11.25;4.55;;;15.90;99.90;;;;;;4975046;28;20135;-59
2022/06/08 01:54:37;;;;;;;9.55;4.15;;;15.90;99.90;;;;;;4974639;28;20031;-59
2022/06/08 01:57:33;;;;;;;11.07;4.53;;;15.90;99.90;;;;;;4974690;28;20051;-60
2022/06/08 02:00:09;;;;;;;10.13;3.85;;;15.80;99.90;;;;;;4974351;28;20487;-60
2022/06/08 02:02:48;;;;;;;10.40;3.88;;;15.80;99.90;;;;;;4974288;28;20126;-60
2022/06/08 02:05:31;;;;;;;9.32;4.10;;;15.90;99.90;;;;;;4971004;28;20372;-59
2022/06/08 02:08:15;;;;;;;10.55;3.95;;;15.80;99.90;;;;;;4973565;28;20394;-60
2022/06/08 02:10:51;;;;;;;14.93;4.50;;;15.80;99.90;;;;;;4974687;28;20035;-60
2022/06/08 02:13:30;;;;;;;8.65;3.80;;;15.80;99.90;;;;;;4974213;28;20038;-60
2022/06/08 02:16:05;;;;;;;12.13;4.32;;;15.80;99.90;;;;;;4974046;28;20035;-59
2022/06/08 02:18:38;;;;;;;10.05;4.43;;;15.70;99.90;;;;;;4974282;28;20035;-59
2022/06/08 02:21:16;;;;;;;9.05;3.90;;;15.60;99.90;;;;;;4989512;28;20034;-60
2022/06/08 02:23:54;;;;;;;10.35;4.25;;;15.60;99.90;;;;;;4974049;28;20475;-60
2022/06/08 02:26:36;;;;;;;11.90;4.18;;;15.70;99.90;;;;;;4971580;28;20018;-60
2022/06/08 02:29:06;;;;;;;12.88;4.50;;;15.90;99.90;;;;;;4974548;28;20054;-60
2022/06/08 02:31:41;;;;;;;10.18;3.95;;;16.00;99.90;;;;;;4973845;28;20093;-60
2022/06/08 02:34:29;;;;;;;11.07;3.95;;;16.00;99.90;;;;;;4973533;28;20532;-60
2022/06/08 02:37:19;;;;;;;14.50;4.35;;;15.90;99.90;;;;;;4974148;28;20038;-60
2022/06/08 02:39:48;;;;;;;11.43;4.72;;;15.80;99.90;;;;;;4974042;28;20063;-59
2022/06/08 02:42:22;;;;;;;12.05;4.35;;;15.60;99.90;;;;;;4973807;28;20077;-59
2022/06/08 02:44:55;;;;;;;11.50;4.28;;;15.60;99.90;;;;;;4973722;28;20026;-60
2022/06/08 02:47:31;;;;;;;11.85;4.20;;;15.60;99.90;;;;;;4973483;28;20498;-60
2022/06/08 02:50:03;;;;;;;10.75;4.07;;;15.80;99.90;;;;;;4972768;28;20034;-60
2022/06/08 02:52:29;;;;;;;11.63;4.68;;;16.10;99.90;;;;;;4973455;28;20031;-60
2022/06/08 02:54:56;;;;;;;11.68;4.30;;;16.00;99.90;;;;;;4973568;28;20053;-60
2022/06/08 02:57:37;;;;;;;10.07;3.88;;;15.70;99.90;;;;;;4973383;28;20590;-60
2022/06/08 03:00:15;;;;;;;11.82;4.82;;;15.80;99.90;;;;;;4973357;28;20027;-60
2022/06/08 03:02:58;;;;;;;11.98;4.32;;;15.70;99.90;;;;;;4972746;28;20053;-60
2022/06/08 03:05:33;;;;;;;13.23;4.40;;;15.80;99.90;;;;;;4971320;28;20074;-60
2022/06/08 03:08:07;;;;;;;12.02;4.05;;;15.80;99.90;;;;;;4974138;28;20109;-60
2022/06/08 03:10:36;;;;;;;13.80;4.50;;;15.80;99.90;;;;;;4973130;28;20026;-60
2022/06/08 03:13:16;;;;;;;10.10;4.43;;;16.00;99.90;;;;;;4973217;28;20035;-60
2022/06/08 03:15:48;;;;;;;10.43;4.53;;;16.00;99.90;;;;;;4972865;28;20057;-60
2022/06/08 03:18:14;;;;;;;11.90;3.95;;;15.90;99.90;;;;;;4973186;28;20130;-60
2022/06/08 03:20:40;;;;;;;10.73;4.70;;;16.10;99.90;;;;;;4973494;28;20117;-60
2022/06/08 03:23:06;;;;;;;10.10;3.78;;;16.10;99.90;;;;;;4973748;28;20508;-60
2022/06/08 03:25:32;;;;;;;10.95;4.50;;;16.10;99.90;;;;;;4973061;28;20043;-60
2022/06/08 03:27:57;;;;;;;8.88;4.40;;;16.00;99.90;;;;;;4973129;28;20050;-60
2022/06/08 03:30:23;;;;;;;13.77;4.60;;;16.00;99.90;;;;;;4972606;28;20073;-60
2022/06/08 03:32:49;;;;;;;11.55;4.75;;;16.20;99.90;;;;;;4973088;28;20027;-60
2022/06/08 03:35:15;;;;;;;11.60;5.32;;;16.20;99.90;;;;;;4972799;28;20027;-60
2022/06/08 03:37:42;;;;;;;11.27;5.50;;;15.90;99.90;;;;;;4973029;28;20418;-60
2022/06/08 03:40:08;;;;;;;11.05;5.00;;;15.80;99.90;;;;;;4972744;28;20023;-60
2022/06/08 03:42:34;;;;;;;13.45;4.93;;;15.90;99.90;;;;;;4972985;28;20027;-60
2022/06/08 03:45:00;;;;;;;11.40;5.35;;;15.90;99.90;;;;;;4972511;28;20118;-60
2022/06/08 03:47:29;;;;;;;11.68;5.93;;;16.00;99.90;;;;;;4972805;28;20027;-59
2022/06/08 03:49:58;;;;;;;13.50;4.95;;;16.00;99.90;;;;;;4971635;28;20035;-60
2022/06/08 03:52:29;;;;;;;12.27;5.55;;;16.10;99.90;;;;;;4988111;28;20030;-60
2022/06/08 03:55:00;;;;;;;11.85;5.25;;;16.00;99.90;;;;;;4972930;28;20030;-60
2022/06/08 03:57:28;;;;;;;10.85;4.93;;;16.10;99.90;;;;;;4972520;28;20070;-60
2022/06/08 03:59:55;;;;;;;9.82;4.82;;;16.20;99.90;;;;;;4972385;28;20023;-60
2022/06/08 04:02:23;;;;;;;10.73;5.63;;;16.30;99.90;;;;;;4972676;28;20118;-60
2022/06/08 04:04:49;;;;;;;8.57;4.95;;;16.20;99.90;;;;;;4973215;28;20431;-60
2022/06/08 04:07:15;;;;;;;10.05;4.95;;;16.10;99.90;;;;;;4972543;28;20034;-60
2022/06/08 04:09:41;;;;;;;11.82;5.47;;;16.40;99.90;;;;;;4972571;28;20019;-60
2022/06/08 04:12:07;;;;;;;10.60;6.20;;;16.10;99.90;;;;;;4972545;28;20030;-60
2022/06/08 04:14:33;;;;;;;7.32;5.18;;;15.90;99.90;;;;;;4972586;28;20041;-60
2022/06/08 04:17:01;;;;;;;10.90;5.45;;;16.00;99.90;;;;;;4972942;28;20403;-60
2022/06/08 04:19:27;;;;;;;7.45;4.85;;;16.00;99.90;;;;;;4972479;28;20105;-60
2022/06/08 04:21:53;;;;;;;9.13;5.10;;;16.10;99.90;;;;;;4972669;28;20027;-60
2022/06/08 04:24:21;;;;;;;8.18;6.03;;;16.00;99.90;;;;;;4972462;28;20026;-60
2022/06/08 04:26:48;;;;;;;7.78;4.55;;;15.90;99.90;;;;;;4972356;28;20026;-60
2022/06/08 04:29:14;;;;;;;8.43;5.00;;;16.00;99.90;;;;;;4972313;28;20105;-60
2022/06/08 04:31:40;;;;;;;8.98;4.80;;;16.10;99.90;;;;;;4972917;28;20443;-60
2022/06/08 04:34:08;;;;;;;8.85;5.63;;;16.20;99.90;;;;;;4987056;28;20606;-60
2022/06/08 04:36:35;;;;;;;8.73;5.00;;;16.20;99.90;;;;;;4972112;28;20043;-60
2022/06/08 04:39:02;;;;;;;7.40;5.03;;;16.20;99.90;;;;;;4972291;28;20031;-60
2022/06/08 04:41:28;;;;;;;7.80;4.47;;;16.30;99.90;;;;;;4987047;28;20035;-60
2022/06/08 04:43:54;;;;;;;6.32;4.88;;;16.30;99.90;;;;;;4972802;28;20029;-60
2022/06/08 04:46:20;;;;;;;7.32;5.32;;;16.30;99.90;;;;;;4968819;28;20484;-60
2022/06/08 04:48:49;;;;;;;8.13;5.38;;;16.30;99.90;;;;;;4975872;28;20078;-60
2022/06/08 04:51:15;;;;;;;7.50;5.32;;;16.40;99.90;;;;;;4976199;28;20019;-60
2022/06/08 04:53:43;;;;;;;8.98;5.25;;;16.30;99.90;;;;;;4976074;28;20046;-59
2022/06/08 04:56:09;;;;;;;7.28;5.20;;;16.30;99.90;;;;;;4976179;28;20037;-60
2022/06/08 04:58:35;;;;;;;9.05;5.47;;;16.40;99.90;;;;;;4975217;28;20027;-60
2022/06/08 05:01:03;;;;;;;7.50;5.18;;;16.60;99.90;;;;;;4975717;28;20091;-60
2022/06/08 05:03:30;;;;;;;7.72;5.50;;;16.50;99.90;;;;;;4975251;28;20088;-59
2022/06/08 05:05:56;;;;;;;9.70;5.75;;;16.50;99.90;;;;;;4974594;28;20019;-60
2022/06/08 05:08:23;;;;;;;7.20;4.97;;;16.40;99.90;;;;;;4975808;28;20387;-60
2022/06/08 05:10:50;;;;;;;10.35;4.93;;;16.40;99.90;;;;;;4975794;28;20041;-60
2022/06/08 05:13:16;;;;;;;6.03;4.68;;;16.60;99.90;;;;;;4975037;28;20503;-60
2022/06/08 05:15:43;;;;;;;10.82;5.30;;;16.60;99.90;;;;;;4975601;28;20042;-60
2022/06/08 05:18:10;;;;;;;10.90;4.22;;;16.80;99.90;;;;;;4975382;28;20030;-60
2022/06/08 05:20:37;;;;;;;8.07;3.45;;;16.70;99.90;;;;;;4975352;28;20039;-60
2022/06/08 05:23:06;;;;;;;6.80;3.50;;;17.60;99.90;;;;;;4976160;28;20418;-60
2022/06/08 05:25:35;;;;;;;8.75;3.50;;;17.80;99.90;;;;;;4975092;28;20038;-61
2022/06/08 05:28:01;;;;;;;5.43;3.33;;;18.00;99.90;;;;;;4970286;28;20034;-60
2022/06/08 05:30:28;;;;;;;5.60;2.83;;;18.10;99.90;;;;;;4965268;28;20035;-59
2022/06/08 05:32:54;;;;;;;7.22;3.03;;;18.30;99.90;;;;;;4967217;28;20045;-61
2022/06/08 05:35:22;;;;;;;7.35;3.20;;;18.30;99.90;;;;;;4969036;28;20033;-59
2022/06/08 05:37:48;;;;;;;6.40;3.28;;;18.40;99.90;;;;;;4971127;28;20093;-60
2022/06/08 05:40:13;;;;;;;5.55;3.28;;;18.50;99.90;;;;;;4971015;28;20035;-60
2022/06/08 05:42:39;;;;;;;6.60;3.38;;;18.40;99.90;;;;;;4970799;28;20034;-60
2022/06/08 05:45:15;;;;;;;5.90;2.95;;;18.40;99.90;;;;;;4967845;28;20045;-59
2022/06/08 05:47:41;;;;;;;6.03;3.15;;;18.90;99.90;;;;;;4969166;28;20034;-59
2022/06/08 05:50:07;;;;;;;3.78;2.72;;;19.00;99.90;;;;;;4969847;28;20024;-59
2022/06/08 05:52:33;;;;;;;4.50;2.95;;;19.00;99.90;;;;;;4971473;28;20042;-59
2022/06/08 05:54:59;;;;;;;3.65;2.80;;;19.00;99.90;;;;;;4971278;28;20031;-59
2022/06/08 05:57:24;;;;;;;4.05;3.00;;;19.00;99.90;;;;;;4968099;28;20066;-59
2022/06/08 05:59:50;;;;;;;4.75;2.70;;;18.70;99.90;;;;;;4968672;28;20110;-59
2022/06/08 06:02:16;;;;;;;5.60;3.17;;;18.80;99.90;;;;;;4968881;28;20098;-59
2022/06/08 06:04:43;;;;;;;5.15;2.60;;;19.00;99.90;;;;;;4970927;28;20026;-59
2022/06/08 06:07:11;;;;;;;5.40;2.55;;;19.00;99.90;;;;;;4970546;28;20025;-59
2022/06/08 06:09:37;;;;;;;4.00;2.45;;;19.10;99.90;;;;;;4970426;28;20423;-59
2022/06/08 06:12:04;;;;;;;3.08;2.30;;;18.90;99.90;;;;;;4968398;28;20034;-59
2022/06/08 06:14:29;;;;;;;3.38;2.33;;;18.90;99.90;;;;;;4968448;28;20454;-59
2022/06/08 06:16:55;;;;;;;3.92;2.38;;;19.00;99.90;;;;;;4969239;28;20035;-59
2022/06/08 06:19:21;;;;;;;4.75;2.50;;;19.20;99.90;;;;;;4973541;28;20054;-59
2022/06/08 06:21:46;;;;;;;7.63;2.58;;;19.00;99.90;;;;;;4971229;28;20081;-59
2022/06/08 06:24:12;;;;;;;4.90;2.53;;;19.20;99.90;;;;;;4973479;28;20023;-60
2022/06/08 06:26:38;;;;;;;4.03;2.33;;;19.10;99.90;;;;;;4968102;28;20034;-59
2022/06/08 06:29:04;;;;;;;4.38;2.20;;;19.10;99.90;;;;;;4973138;28;20015;-59
2022/06/08 06:31:54;;;;;;;3.88;2.30;;;19.00;99.90;;;;;;4970512;28;20039;-59
2022/06/08 06:34:23;;;;;;;5.53;2.50;;;19.20;99.90;;;;;;4971323;28;20391;-58
2022/06/08 06:36:49;;;;;;;2.83;2.22;;;19.50;99.90;;;;;;4973676;28;20056;-59
2022/06/08 06:39:15;;;;;;;2.88;2.40;;;19.60;99.90;;;;;;4973607;28;20035;-59
2022/06/08 06:41:44;;;;;;;5.57;2.38;;;19.60;99.90;;;;;;4973884;28;20422;-60
2022/06/08 06:44:10;;;;;;;9.75;2.90;;;19.60;99.90;;;;;;4970188;28;20033;-61
2022/06/08 06:46:35;;;;;;;7.63;2.50;;;19.90;99.90;;;;;;4973214;28;20463;-60
2022/06/08 06:49:02;;;;;;;7.60;2.70;;;20.00;99.90;;;;;;4968235;28;20042;-61
2022/06/08 06:51:27;;;;;;;10.48;2.63;;;19.90;99.90;;;;;;4973246;28;20041;-60
2022/06/08 06:53:53;;;;;;;6.00;2.60;;;20.00;99.90;;;;;;4973180;28;20419;-60
2022/06/08 06:56:19;;;;;;;5.22;2.45;;;19.90;99.90;;;;;;4973742;28;20037;-60
2022/06/08 06:58:48;;;;;;;5.13;2.60;;;19.90;99.90;;;;;;4973712;28;20383;-60
2022/06/08 07:01:15;;;;;;;5.70;2.55;;;19.80;99.90;;;;;;4973367;28;20403;-60
2022/06/08 07:03:41;;;;;;;5.35;2.20;;;19.90;99.90;;;;;;4973228;28;20063;-60
2022/06/08 07:06:07;;;;;;;5.85;2.55;;;19.80;99.90;;;;;;4973206;28;20033;-60
2022/06/08 07:08:33;;;;;;;7.47;2.50;;;19.60;99.90;;;;;;4972844;28;20031;-60
2022/06/08 07:13:43;;;;;;;7.85;2.50;;;19.60;99.90;;;;;;4973510;28;20122;-60
2022/06/08 07:16:09;;;;;;;4.18;2.10;;;19.70;99.90;;;;;;4972998;28;20411;-60
2022/06/08 07:18:35;;;;;;;5.32;2.08;;;19.80;99.90;;;;;;4973305;28;20069;-60
2022/06/08 07:21:01;;;;;;;4.65;1.92;;;20.00;99.90;;;;;;4973193;28;20022;-60
2022/06/08 07:23:27;;;;;;;4.35;2.10;;;20.10;99.90;;;;;;4972830;28;20026;-60
2022/06/08 07:25:53;;;;;;;3.80;2.00;;;20.40;99.90;;;;;;4973750;28;20484;-60
2022/06/08 07:28:18;;;;;;;6.13;2.10;;;20.50;99.90;;;;;;4972988;28;20038;-60
2022/06/08 07:30:44;;;;;;;3.55;2.10;;;20.50;99.90;;;;;;4972829;28;20483;-60
2022/06/08 07:33:10;;;;;;;4.63;2.30;;;20.50;99.90;;;;;;4973044;28;20077;-60
2022/06/08 07:35:36;;;;;;;2.80;2.00;;;20.50;99.90;;;;;;4972638;28;20034;-60
2022/06/08 07:38:01;;;;;;;4.20;2.13;;;20.70;99.90;;;;;;4973199;28;20035;-60
2022/06/08 07:40:27;;;;;;;2.85;1.77;;;20.80;99.90;;;;;;4988058;28;20121;-60
2022/06/08 07:42:53;;;;;;;4.18;1.98;;;20.70;99.90;;;;;;4972632;28;20026;-60
2022/06/08 07:45:19;;;;;;;3.88;1.80;;;20.80;99.90;;;;;;4972758;28;20110;-60
2022/06/08 07:50:29;;;;;;;4.55;1.80;;;20.90;99.90;;;;;;4971620;28;20046;-60
2022/06/08 07:52:55;;;;;;;5.82;1.95;;;20.60;99.90;;;;;;4973013;28;20018;-60
2022/06/08 07:55:21;;;;;;;5.88;1.80;;;20.30;99.90;;;;;;4972583;28;20027;-60
2022/06/08 07:57:47;;;;;;;3.95;1.75;;;20.20;99.90;;;;;;4972708;28;20034;-60
2022/06/08 08:00:15;;;;;;;4.22;1.95;;;20.10;99.90;;;;;;4972839;28;20037;-60
2022/06/08 08:02:41;;;;;;;5.68;1.85;;;20.10;99.90;;;;;;4972419;28;20058;-60
2022/06/08 08:05:11;;;;;;;5.32;2.15;;;20.10;99.90;;;;;;4973018;28;20031;-60
2022/06/08 08:07:38;;;;;;;3.88;1.75;;;20.00;99.90;;;;;;4972054;28;20097;-60
2022/06/08 08:10:06;;;;;;;5.63;1.90;;;20.20;99.90;;;;;;4972461;28;20062;-60
2022/06/08 08:12:31;;;;;;;4.60;1.80;;;20.20;99.90;;;;;;4972400;28;20047;-60
2022/06/08 08:14:57;;;;;;;4.50;1.52;;;20.40;99.90;;;;;;4972762;28;20050;-60
2022/06/08 08:17:23;;;;;;;5.47;1.63;;;20.60;99.90;;;;;;4972454;28;20031;-60
2022/06/08 08:19:48;;;;;;;5.78;1.80;;;20.80;99.90;;;;;;4973290;28;20353;-60
2022/06/08 08:22:15;;;;;;;4.65;1.60;;;20.80;99.90;;;;;;4975819;28;20038;-60
2022/06/08 08:24:41;;;;;;;5.60;1.60;;;20.90;99.90;;;;;;4976157;28;20053;-60
2022/06/08 08:27:07;;;;;;;3.33;1.27;;;21.00;99.90;;;;;;4976313;28;20106;-60
2022/06/08 08:29:33;;;;;;;4.03;1.65;;;21.20;99.90;;;;;;4976290;28;20054;-60
2022/06/08 08:31:59;;;;;;;3.55;1.58;;;21.20;99.90;;;;;;4976892;28;20503;-60
2022/06/08 08:34:25;;;;;;;2.33;1.48;;;21.00;99.90;;;;;;4976172;28;20023;-60
2022/06/08 08:36:51;;;;;;;1.80;1.33;;;20.90;99.90;;;;;;4975542;28;20035;-60
2022/06/08 08:39:18;;;;;;;3.42;1.50;;;20.80;99.90;;;;;;4976106;28;20016;-60
2022/06/08 08:44:34;;;;;;;4.32;1.45;;;20.80;99.90;;;;;;4959035;28;20038;-61
2022/06/08 08:47:21;;;;;;;3.83;1.42;;;20.60;99.90;;;;;;4976291;28;20125;-60
2022/06/08 08:49:53;;;;;;;2.60;1.60;;;20.60;99.90;;;;;;4975064;28;20031;-60
2022/06/08 08:52:27;;;;;;;4.13;1.40;;;20.70;99.90;;;;;;4976008;28;20019;-60
2022/06/08 08:54:59;;;;;;;1.77;1.15;;;20.70;99.90;;;;;;4975863;28;20033;-60
2022/06/08 08:58:07;;;;;;;2.58;1.40;;;20.80;99.90;;;;;;4975503;28;20043;-60
2022/06/08 09:00:52;;;;;;;4.00;1.50;;;21.00;99.90;;;;;;4975129;28;20035;-60
2022/06/08 09:03:29;;;;;;;1.98;1.27;;;21.10;99.90;;;;;;4975411;28;20414;-60
2022/06/08 09:06:18;;;;;;;2.30;1.30;;;21.20;99.90;;;;;;4975688;28;20022;-60
2022/06/08 09:08:50;;;;;;;2.47;1.20;;;21.60;99.90;;;;;;4975760;28;20117;-60
2022/06/08 09:11:26;;;;;;;3.03;1.30;;;21.70;99.90;;;;;;4972562;28;20113;-60
2022/06/08 09:13:56;;;;;;;1.63;1.10;;;21.70;99.90;;;;;;4975923;28;20035;-60
2022/06/08 09:16:41;;;;;;;3.63;1.40;;;21.60;99.90;;;;;;4975509;28;20522;-60
2022/06/08 09:19:37;;;;;;;3.80;1.45;;;21.50;99.90;;;;;;4975053;28;20045;-60
2022/06/08 09:22:03;;;;;;;1.80;1.10;;;21.10;99.90;;;;;;4974557;28;20050;-60
2022/06/08 09:24:34;;;;;;;3.13;1.30;;;21.00;99.90;;;;;;4990148;28;20026;-60
2022/06/08 09:27:35;;;;;;;2.40;1.35;;;21.00;99.90;;;;;;4975435;28;20558;-60
2022/06/08 09:30:20;;;;;;;2.80;1.20;;;20.90;99.90;;;;;;4975026;28;20018;-61
2022/06/08 09:32:51;;;;;;;3.20;1.45;;;20.80;99.90;;;;;;4973938;28;20026;-60
2022/06/08 09:35:22;;;;;;;3.53;1.55;;;20.80;99.90;;;;;;4975365;28;20027;-60
2022/06/08 09:37:52;;;;;;;4.43;1.40;;;20.80;99.90;;;;;;4975513;28;20039;-60
2022/06/08 09:40:37;;;;;;;2.92;1.50;;;20.70;99.90;;;;;;4974987;28;20026;-60
2022/06/08 09:43:38;;;;;;;4.65;1.35;;;20.50;99.90;;;;;;4975337;28;20447;-60
2022/06/08 09:46:15;;;;;;;2.92;1.25;;;20.40;99.90;;;;;;4975090;28;20065;-60
2022/06/08 09:52:22;;;;;;;3.80;1.45;;;20.30;99.90;;;;;;4975031;28;20147;-61
2022/06/08 09:54:56;;;;;;;2.08;1.10;;;20.40;99.90;;;;;;4974610;28;20039;-60
2022/06/08 09:57:40;;;;;;;2.45;1.10;;;20.20;99.90;;;;;;4974845;28;20047;-60
2022/06/08 10:00:36;;;;;;;2.40;1.10;;;20.30;99.90;;;;;;4974988;28;20035;-60
2022/06/08 10:03:32;;;;;;;3.08;1.40;;;20.40;99.90;;;;;;4974287;28;20602;-60
2022/06/08 10:06:21;;;;;;;2.20;1.10;;;20.30;99.90;;;;;;4974449;28;20034;-60
2022/06/08 10:08:55;;;;;;;1.60;1.00;;;20.40;99.90;;;;;;4974433;28;20443;-60
2022/06/08 10:11:37;;;;;;;4.22;1.10;;;20.30;99.90;;;;;;4974847;28;20029;-61
2022/06/08 10:14:30;;;;;;;1.63;0.93;;;20.30;99.90;;;;;;4975186;28;20062;-60
2022/06/08 10:17:11;;;;;;;2.25;0.90;;;20.20;99.90;;;;;;4972743;28;20043;-61
2022/06/08 10:19:58;;;;;;;2.63;0.90;;;20.30;99.90;;;;;;4974248;28;20039;-61
2022/06/08 10:22:30;;;;;;;1.05;0.82;;;20.30;99.90;;;;;;4974266;28;20030;-61
2022/06/08 10:25:03;;;;;;;2.13;1.00;;;20.40;99.90;;;;;;4974113;28;20532;-61
2022/06/08 10:27:54;;;;;;;1.40;0.90;;;20.60;99.90;;;;;;4974056;28;20039;-61
2022/06/08 10:30:43;;;;;;;2.40;0.88;;;20.60;99.90;;;;;;4974065;28;20035;-59
2022/06/08 10:33:29;;;;;;;2.03;1.00;;;20.70;99.90;;;;;;4974234;28;20022;-60
2022/06/08 10:35:56;;;;;;;1.17;0.80;;;20.70;99.90;;;;;;4974174;28;20118;-60
2022/06/08 10:38:34;;;;;;;1.60;0.98;;;20.60;99.90;;;;;;4974219;28;20042;-60
2022/06/08 10:44:04;;;;;;;1.13;0.95;;;20.80;99.90;;;;;;4973092;28;20614;-60
2022/06/08 10:46:47;;;;;;;1.02;0.90;;;20.80;99.90;;;;;;4973434;28;20038;-60
2022/06/08 10:49:32;;;;;;;1.30;0.80;;;20.80;99.90;;;;;;4973743;28;20595;-61
2022/06/08 10:52:20;;;;;;;1.05;0.93;;;20.80;99.90;;;;;;4973711;28;20043;-61
2022/06/08 10:54:53;;;;;;;1.05;0.73;;;20.90;99.90;;;;;;4973557;28;20027;-61
2022/06/08 10:57:35;;;;;;;;;;;20.50;99.90;;;;;;4973934;28;20089;-61
2022/06/08 11:00:19;;;;;;;1.23;0.90;;;20.50;99.90;;;;;;4973331;28;19912;-61
2022/06/08 11:02:59;;;;;;;3.17;1.00;;;20.40;99.90;;;;;;4973785;28;20050;-61
2022/06/08 11:05:39;;;;;;;0.85;0.80;;;20.50;99.90;;;;;;4971357;28;20034;-60
2022/06/08 11:08:07;;;;;;;3.00;0.70;;;20.60;99.90;;;;;;4974311;28;20027;-61
2022/06/08 11:10:45;;;;;;;1.52;0.60;;;21.00;99.90;;;;;;4973316;28;20031;-60
2022/06/08 11:13:22;;;;;;;1.92;0.60;;;21.30;99.90;;;;;;4973214;28;20031;-60
2022/06/08 11:16:09;;;;;;;1.95;0.90;;;21.00;99.90;;;;;;4972657;28;20027;-60
2022/06/08 11:18:46;;;;;;;3.70;0.95;;;20.90;99.90;;;;;;4973180;28;20042;-61
2022/06/08 11:21:15;;;;;;;2.20;0.85;;;20.90;99.90;;;;;;4973136;28;20031;-60
2022/06/08 11:24:03;;;;;;;1.83;1.00;;;20.90;99.90;;;;;;4973571;28;20500;-61
2022/06/08 11:26:38;;;;;;;1.13;0.70;;;21.00;99.90;;;;;;4971295;28;20035;-61
2022/06/08 11:29:18;;;;;;;0.60;0.60;;;21.20;99.90;;;;;;4972436;28;20118;-61
2022/06/08 11:31:44;;;;;;;1.73;0.75;;;21.10;99.90;;;;;;4973399;28;20035;-60
2022/06/08 11:34:18;;;;;;;1.83;0.80;;;21.20;99.90;;;;;;4972897;28;20503;-61
2022/06/08 11:36:59;;;;;;;1.15;0.80;;;21.50;99.90;;;;;;4973075;28;20031;-60
2022/06/08 11:39:43;;;;;;;2.03;0.60;;;21.40;99.90;;;;;;4972915;28;20404;-60
2022/06/08 11:42:14;;;;;;;1.17;0.70;;;21.30;99.90;;;;;;4972884;28;20033;-61
2022/06/08 11:45:01;;;;;;;0.80;0.80;;;21.20;99.90;;;;;;4972564;28;20037;-60
2022/06/08 11:48:00;;;;;;;0.65;0.65;;;21.10;99.90;;;;;;4970757;28;20027;-60
2022/06/08 11:50:39;;;;;;;1.17;0.70;;;21.10;99.90;;;;;;4968451;28;20098;-61
2022/06/08 11:53:14;;;;;;;1.05;0.70;;;21.00;99.90;;;;;;4971516;28;20058;-61
2022/06/08 11:55:58;;;;;;;0.73;0.73;;;21.00;99.90;;;;;;4969832;28;20043;-61
2022/06/08 11:58:27;;;;;;;;;;;20.90;99.90;;;;;;4970835;28;20059;-61
2022/06/08 12:01:16;;;;;;;1.10;0.70;;;20.90;99.90;;;;;;4970572;28;19910;-61
2022/06/08 12:03:45;;;;;;;1.90;0.70;;;20.90;99.90;;;;;;4970019;28;20042;-61
2022/06/08 12:06:14;;;;;;;1.83;0.75;;;21.20;99.90;;;;;;4970383;28;20077;-61
2022/06/08 12:09:04;;;;;;;1.58;0.68;;;21.30;99.90;;;;;;4970428;28;20030;-62
2022/06/08 12:11:33;;;;;;;1.13;0.75;;;21.40;99.90;;;;;;4970666;28;20076;-61
2022/06/08 12:14:20;;;;;;;0.77;0.70;;;21.40;99.90;;;;;;4970519;28;20066;-61
2022/06/08 12:16:59;;;;;;;0.90;0.68;;;21.20;99.90;;;;;;4970533;28;20050;-61
2022/06/08 12:19:29;;;;;;;0.90;0.60;;;21.40;99.90;;;;;;4970323;28;20074;-61
2022/06/08 12:22:19;;;;;;;2.35;0.70;;;21.50;99.90;;;;;;4969958;28;20026;-61
2022/06/08 12:25:21;;;;;;;0.70;0.70;;;21.60;99.90;;;;;;4970098;28;20023;-61
2022/06/08 12:28:06;;;;;;;0.85;0.60;;;21.80;99.90;;;;;;4971840;28;20042;-61
2022/06/08 12:30:52;;;;;;;0.50;0.50;;;21.80;99.90;;;;;;4972332;28;20093;-61
2022/06/08 12:33:17;;;;;;;0.95;0.60;;;21.80;99.90;;;;;;4972364;28;20031;-61
2022/06/08 12:35:58;;;;;;;0.68;0.68;;;22.00;99.90;;;;;;4972333;28;20034;-61
2022/06/08 12:38:30;;;;;;;1.13;0.50;;;21.70;99.90;;;;;;4969782;28;20050;-61
2022/06/08 12:41:05;;;;;;;0.90;0.70;;;21.70;99.90;;;;;;4971084;28;20082;-61
2022/06/08 12:43:52;;;;;;;2.15;0.80;;;21.80;99.90;;;;;;4971736;28;20033;-61
2022/06/08 12:46:22;;;;;;;0.60;0.60;;;21.50;99.90;;;;;;4972386;28;20035;-61
2022/06/08 12:48:58;;;;;;;1.13;0.77;;;21.40;99.90;;;;;;4972170;28;20526;-61
2022/06/08 12:51:35;;;;;;;0.55;0.55;;;21.20;99.90;;;;;;4972003;28;20049;-61
2022/06/08 12:54:34;;;;;;;1.30;0.70;;;21.30;99.90;;;;;;4971991;28;20364;-61
2022/06/08 12:57:21;;;;;;;2.13;0.70;;;21.30;99.90;;;;;;4949917;29;20050;-61
2022/06/08 12:59:52;;;;;;;2.20;0.80;;;21.50;99.90;;;;;;4951009;29;20373;-61
2022/06/08 13:02:26;;;;;;;1.05;0.70;;;21.40;99.90;;;;;;4947574;29;20086;-61
2022/06/08 13:04:54;;;;;;;0.82;0.70;;;21.40;99.90;;;;;;4950370;29;20047;-60
2022/06/08 13:07:24;;;;;;;0.70;0.70;;;21.60;99.90;;;;;;4952768;28;20031;-60
2022/06/08 13:09:50;;;;;;;2.15;0.90;;;21.90;99.90;;;;;;4953896;29;20019;-60
2022/06/08 13:12:27;;;;;;;0.85;0.70;;;21.90;99.90;;;;;;4953721;29;20546;-60
2022/06/08 13:14:53;;;;;;;1.42;0.70;;;21.80;99.90;;;;;;4954109;29;20118;-60
2022/06/08 13:17:20;;;;;;;2.50;0.98;;;21.80;99.90;;;;;;4954116;29;20122;-60
2022/06/08 13:19:46;;;;;;;1.05;0.80;;;21.50;99.90;;;;;;4953979;29;20035;-60
2022/06/08 13:22:13;;;;;;;1.00;0.63;;;21.20;99.90;;;;;;4953699;29;20046;-60
2022/06/08 13:24:40;;;;;;;0.90;0.70;;;21.00;99.90;;;;;;4953396;29;20062;-61
2022/06/08 13:27:16;;;;;;;2.00;0.82;;;21.10;99.90;;;;;;4953667;29;20028;-60
2022/06/08 13:29:41;;;;;;;1.85;0.73;;;21.30;99.90;;;;;;4953844;29;20027;-60
2022/06/08 13:32:20;;;;;;;0.82;0.80;;;21.60;99.90;;;;;;4954845;29;20166;-60